Terminal Aerodrome Forecast
Issued by NWS

Home | Current Version | Previous Version | Graphics & Text | Print | Product List | Glossary On
Versions: 1 2 3 4 5 6 7 8 9 10 11 12 13 14 15
000
FTUS45 KGGW 160526
TAFSDY
TAF
KSDY 160526Z 1606/1706 00000KT 5SM BR FEW010 SCT070
     FM160900 VRB03KT 3SM BR SCT005
     FM161100 00000KT 1/4SM FG OVC003
     FM161500 00000KT 1SM BR SCT005 BKN015
     FM161600 00000KT P6SM FEW250=

USA.gov is the U.S. government's official web portal to all federal, state and local government web resources and services.